Time;durP1;ratioP1;P1;durP2;ratioP2;P2;SDS_P1;SDS_P2;PMS_P1;PMS_P2;Temp;Humidity;BMP_temperature;BMP_pressure;BME280_temperature;BME280_humidity;BME280_pressure;Samples;Min_cycle;Max_cycle;Signal;HPM_P1;HPM_P2
2021/12/05 00:21:01;;;;;;;18.38;7.97;;;5.70;96.30;;;;;;5156113;27;36558;-57
2021/12/05 00:23:33;;;;;;;20.10;7.32;;;5.80;96.50;;;;;;5160878;27;38186;-56
2021/12/05 00:26:02;;;;;;;20.65;7.70;;;5.70;96.60;;;;;;5158978;27;37378;-56
2021/12/05 00:29:02;;;;;;;18.02;6.30;;;5.70;96.70;;;;;;5161327;27;36445;-57
2021/12/05 00:31:54;;;;;;;16.58;6.03;;;5.80;96.80;;;;;;5158786;27;37168;-56
2021/12/05 00:34:40;;;;;;;15.98;6.65;;;5.70;96.80;;;;;;5160532;27;36799;-56
2021/12/05 00:57:25;;;;;;;12.32;3.63;;;5.70;96.90;;;;;;5113369;27;37438;-56
2021/12/05 01:00:05;;;;;;;12.32;4.53;;;5.70;97.10;;;;;;5155697;27;37107;-56
2021/12/05 01:02:41;;;;;;;11.57;4.68;;;5.70;97.00;;;;;;5156233;27;37702;-56
2021/12/05 01:08:11;;;;;;;11.60;3.90;;;5.70;97.00;;;;;;5104362;27;37569;-56
2021/12/05 01:13:42;;;;;;;13.85;5.05;;;5.60;97.00;;;;;;5141648;27;38150;-56
2021/12/05 01:16:13;;;;;;;10.38;3.53;;;5.60;97.00;;;;;;5157218;27;37313;-56
2021/12/05 01:18:40;;;;;;;10.98;4.47;;;5.60;97.00;;;;;;5155763;27;37228;-57
2021/12/05 01:21:14;;;;;;;10.38;4.28;;;5.70;97.10;;;;;;5157221;27;37420;-56
2021/12/05 01:23:52;;;;;;;15.27;5.03;;;5.70;97.10;;;;;;5157746;27;36421;-56
2021/12/05 01:26:24;;;;;;;11.82;4.28;;;5.70;97.10;;;;;;5153668;27;37959;-56
2021/12/05 01:29:04;;;;;;;10.82;4.03;;;5.70;97.10;;;;;;5153982;27;36865;-56
2021/12/05 01:31:42;;;;;;;10.35;4.00;;;5.80;97.10;;;;;;5155369;27;35352;-56
2021/12/05 01:34:30;;;;;;;11.07;4.05;;;5.70;97.00;;;;;;5155308;27;37587;-56
2021/12/05 01:37:09;;;;;;;16.17;4.03;;;5.70;97.00;;;;;;5156186;27;39108;-56
2021/12/05 01:39:51;;;;;;;10.45;4.35;;;5.70;97.00;;;;;;5157141;27;36927;-56
2021/12/05 01:43:00;;;;;;;12.90;4.55;;;5.70;97.00;;;;;;5156497;27;36873;-56
2021/12/05 01:45:58;;;;;;;14.02;3.70;;;5.80;97.00;;;;;;5155780;27;39280;-56
2021/12/05 01:54:14;;;;;;;17.17;4.57;;;5.60;97.00;;;;;;5157205;27;37099;-56
2021/12/05 01:57:03;;;;;;;11.52;4.93;;;5.60;97.20;;;;;;5155067;27;38017;-56
2021/12/05 01:59:57;;;;;;;10.82;4.50;;;5.60;97.10;;;;;;5159248;27;37406;-56
2021/12/05 02:08:33;;;;;;;12.50;4.78;;;5.50;97.20;;;;;;5139066;27;37776;-56
2021/12/05 02:11:28;;;;;;;12.45;5.50;;;5.60;97.30;;;;;;5160259;27;38215;-56
2021/12/05 02:29:25;;;;;;;13.30;4.88;;;5.50;97.20;;;;;;5160497;27;37752;-56
2021/12/05 02:39:15;;;;;;;15.00;5.60;;;5.50;97.30;;;;;;5160556;27;37938;-56
2021/12/05 02:41:45;;;;;;;15.13;5.60;;;5.50;97.30;;;;;;5158564;27;37139;-56
2021/12/05 02:44:20;;;;;;;13.88;5.45;;;5.50;97.40;;;;;;5159034;27;38136;-56
2021/12/05 02:46:50;;;;;;;10.57;4.93;;;5.50;97.30;;;;;;5157680;27;37513;-56
2021/12/05 02:49:17;;;;;;;13.23;5.20;;;5.50;97.30;;;;;;5158497;27;36902;-56
2021/12/05 02:51:52;;;;;;;14.85;5.53;;;5.50;97.40;;;;;;5159343;27;38416;-56
2021/12/05 02:54:23;;;;;;;15.60;6.82;;;5.50;97.60;;;;;;5158507;27;36441;-56
2021/12/05 02:56:52;;;;;;;13.80;5.68;;;5.50;97.30;;;;;;5158014;27;38136;-56
2021/12/05 02:59:25;;;;;;;15.57;5.38;;;5.50;97.40;;;;;;5159290;27;36565;-56
2021/12/05 03:01:59;;;;;;;10.65;5.13;;;5.50;97.40;;;;;;5157756;27;36567;-56
2021/12/05 03:04:31;;;;;;;11.68;5.15;;;5.50;97.50;;;;;;5156448;27;36718;-56
2021/12/05 03:07:00;;;;;;;13.73;6.10;;;5.50;97.50;;;;;;5158883;27;35803;-56
2021/12/05 03:09:29;;;;;;;16.08;5.10;;;5.50;97.50;;;;;;5157619;27;35314;-56
2021/12/05 03:11:56;;;;;;;11.55;5.78;;;5.50;97.50;;;;;;5160090;27;37373;-56
2021/12/05 03:14:24;;;;;;;12.30;4.35;;;5.50;97.40;;;;;;5157968;27;38752;-56
2021/12/05 03:16:52;;;;;;;16.40;5.18;;;5.50;97.40;;;;;;5159045;27;37598;-56
2021/12/05 03:19:19;;;;;;;12.25;5.20;;;5.50;97.40;;;;;;5159604;27;36609;-56
2021/12/05 03:21:50;;;;;;;12.80;5.03;;;5.50;97.40;;;;;;5158694;27;36679;-56
2021/12/05 03:24:20;;;;;;;13.85;5.40;;;5.50;97.40;;;;;;5157242;27;36212;-56
2021/12/05 03:26:52;;;;;;;17.38;5.50;;;5.40;97.30;;;;;;5157130;27;37134;-56
2021/12/05 03:29:21;;;;;;;13.85;5.15;;;5.40;97.30;;;;;;5158863;27;38158;-56
2021/12/05 03:31:50;;;;;;;14.55;5.45;;;5.40;97.40;;;;;;5157760;27;37820;-56
2021/12/05 03:34:18;;;;;;;17.73;6.13;;;5.40;97.40;;;;;;5158627;27;38016;-56
2021/12/05 03:36:49;;;;;;;17.50;5.22;;;5.40;97.50;;;;;;5158861;27;36898;-56
2021/12/05 03:39:17;;;;;;;14.77;6.43;;;5.40;97.50;;;;;;5159163;27;36725;-56
2021/12/05 03:41:45;;;;;;;14.00;5.90;;;5.40;97.40;;;;;;5157734;27;40059;-56
2021/12/05 03:44:17;;;;;;;17.45;5.97;;;5.40;97.30;;;;;;5157880;27;38573;-56
2021/12/05 03:46:45;;;;;;;14.80;6.00;;;5.40;97.30;;;;;;5158230;27;37026;-56
2021/12/05 03:49:14;;;;;;;18.20;6.75;;;5.40;97.30;;;;;;5160377;27;36516;-57
2021/12/05 03:51:45;;;;;;;14.00;5.88;;;5.30;97.40;;;;;;5159184;27;38983;-56
2021/12/05 03:54:13;;;;;;;13.88;5.93;;;5.30;97.40;;;;;;5160275;27;39837;-56
2021/12/05 03:56:41;;;;;;;15.13;6.32;;;5.40;97.40;;;;;;5157832;27;35811;-56
2021/12/05 03:59:11;;;;;;;13.48;5.95;;;5.40;97.30;;;;;;5157641;27;36331;-56
2021/12/05 04:01:40;;;;;;;12.13;5.55;;;5.40;97.40;;;;;;5157989;27;37548;-56
2021/12/05 04:04:09;;;;;;;17.88;6.57;;;5.30;97.30;;;;;;5157146;27;38442;-56
2021/12/05 04:06:37;;;;;;;24.10;7.82;;;5.30;97.30;;;;;;5157424;27;36644;-56
2021/12/05 04:09:15;;;;;;;21.77;9.30;;;5.30;97.30;;;;;;5156940;27;36707;-56
2021/12/05 04:11:48;;;;;;;23.58;8.05;;;5.30;97.30;;;;;;5157593;27;40076;-56
2021/12/05 04:14:17;;;;;;;21.23;8.23;;;5.20;97.30;;;;;;5158202;27;36215;-56
2021/12/05 04:16:46;;;;;;;27.13;7.38;;;5.20;97.30;;;;;;5159759;27;36968;-56
2021/12/05 04:19:13;;;;;;;23.98;7.47;;;5.20;97.30;;;;;;5158643;27;37429;-56
2021/12/05 04:21:41;;;;;;;14.10;6.25;;;5.10;97.30;;;;;;5157993;27;36377;-56
2021/12/05 04:24:10;;;;;;;16.25;6.72;;;5.10;97.30;;;;;;5155052;27;36107;-56
2021/12/05 04:26:39;;;;;;;16.60;7.25;;;5.10;97.30;;;;;;5156588;27;37242;-56
2021/12/05 04:29:06;;;;;;;16.25;6.80;;;5.10;97.30;;;;;;5157745;27;35365;-56
2021/12/05 04:31:35;;;;;;;20.00;7.93;;;5.10;97.30;;;;;;5157326;27;37425;-56
2021/12/05 04:34:05;;;;;;;25.67;8.18;;;5.10;97.20;;;;;;5158991;27;36294;-56
2021/12/05 04:36:32;;;;;;;20.65;8.40;;;5.10;97.20;;;;;;5158408;27;37836;-56
2021/12/05 04:39:00;;;;;;;17.70;8.10;;;5.00;97.20;;;;;;5158594;27;35550;-56
2021/12/05 04:41:27;;;;;;;20.70;8.38;;;5.00;97.30;;;;;;5158064;27;37590;-56
2021/12/05 04:43:55;;;;;;;18.38;8.13;;;4.90;97.40;;;;;;5158471;27;38182;-56
2021/12/05 04:46:25;;;;;;;24.27;7.93;;;4.90;97.40;;;;;;5156415;27;35829;-56
2021/12/05 04:48:55;;;;;;;19.30;8.48;;;5.00;97.70;;;;;;5157238;27;39009;-56
2021/12/05 04:51:29;;;;;;;20.75;9.00;;;4.90;97.40;;;;;;5156102;27;37515;-56
2021/12/05 04:53:57;;;;;;;18.60;8.05;;;4.90;97.50;;;;;;5157346;27;37478;-56
2021/12/05 04:56:26;;;;;;;25.67;8.75;;;4.90;97.50;;;;;;5156156;27;35947;-56
2021/12/05 04:58:54;;;;;;;24.42;9.27;;;5.00;97.50;;;;;;5158197;27;36691;-56
2021/12/05 05:01:22;;;;;;;18.40;8.65;;;4.90;97.40;;;;;;5157534;27;36305;-56
2021/12/05 05:03:50;;;;;;;18.25;8.32;;;5.00;97.50;;;;;;5158007;27;38844;-56
2021/12/05 05:06:19;;;;;;;18.83;8.70;;;4.90;97.40;;;;;;5157978;27;37364;-56
2021/12/05 05:08:52;;;;;;;22.50;8.63;;;5.00;97.50;;;;;;5158316;27;37714;-56
2021/12/05 05:11:22;;;;;;;20.05;9.50;;;4.90;97.40;;;;;;5156746;27;38136;-56
2021/12/05 05:13:50;;;;;;;24.42;8.63;;;4.90;97.40;;;;;;5158496;27;37396;-56
2021/12/05 05:16:20;;;;;;;22.10;9.32;;;5.00;97.50;;;;;;5156273;27;37044;-56
2021/12/05 05:18:51;;;;;;;21.80;8.85;;;4.90;97.40;;;;;;5157925;27;36517;-56
2021/12/05 05:21:32;;;;;;;21.30;8.20;;;4.90;97.30;;;;;;5157628;27;37716;-57
2021/12/05 05:24:20;;;;;;;23.48;8.23;;;5.00;97.30;;;;;;5159582;27;37202;-56
2021/12/05 05:27:17;;;;;;;19.58;7.95;;;4.90;97.20;;;;;;5156566;27;36794;-56
2021/12/05 05:41:14;;;;;;;14.50;7.15;;;5.00;97.30;;;;;;5164832;27;37738;-57
2021/12/05 05:44:00;;;;;;;20.35;8.02;;;4.90;97.30;;;;;;5165236;27;37235;-56
2021/12/05 05:46:38;;;;;;;20.55;7.68;;;4.90;97.30;;;;;;5163275;27;37359;-56
2021/12/05 05:49:14;;;;;;;19.30;7.63;;;5.00;97.30;;;;;;5164412;27;37711;-56
2021/12/05 05:51:42;;;;;;;21.88;8.32;;;5.00;97.20;;;;;;5163697;27;37613;-57
2021/12/05 05:54:10;;;;;;;22.48;7.63;;;4.90;97.20;;;;;;5163730;27;38046;-56
2021/12/05 05:56:41;;;;;;;18.85;7.78;;;4.90;97.20;;;;;;5161489;27;35623;-56
2021/12/05 05:59:16;;;;;;;21.15;7.65;;;5.00;97.20;;;;;;5164891;27;38569;-56
2021/12/05 06:02:03;;;;;;;16.50;7.03;;;5.00;97.10;;;;;;5163393;27;37624;-56
2021/12/05 06:04:30;;;;;;;21.60;7.88;;;4.90;97.00;;;;;;5164242;27;37625;-56
2021/12/05 06:06:57;;;;;;;17.02;7.28;;;4.90;97.00;;;;;;5163447;27;37384;-56
2021/12/05 06:09:24;;;;;;;22.50;7.60;;;4.90;97.10;;;;;;5162128;27;37059;-56
2021/12/05 06:11:53;;;;;;;19.05;6.57;;;4.90;97.10;;;;;;5162971;27;37816;-56
2021/12/05 06:14:21;;;;;;;22.02;7.00;;;4.90;97.00;;;;;;5163089;27;36451;-57
2021/12/05 06:16:48;;;;;;;17.23;7.22;;;4.90;96.90;;;;;;5163830;27;38647;-56
2021/12/05 06:19:15;;;;;;;18.67;6.93;;;4.90;96.90;;;;;;5164278;27;37193;-56
2021/12/05 06:21:42;;;;;;;20.15;6.40;;;4.80;96.90;;;;;;5162116;27;36463;-56
2021/12/05 06:24:10;;;;;;;21.20;6.00;;;4.80;96.90;;;;;;5163700;27;38252;-56
2021/12/05 06:26:38;;;;;;;17.00;6.10;;;4.80;96.80;;;;;;5160394;27;37098;-57
2021/12/05 06:29:11;;;;;;;20.52;7.30;;;4.80;96.80;;;;;;5163339;27;35754;-56
2021/12/05 06:31:54;;;;;;;16.88;5.95;;;4.70;96.80;;;;;;5161510;27;36135;-56
2021/12/05 06:37:29;;;;;;;19.67;6.40;;;4.70;96.70;;;;;;5163336;27;39511;-56
2021/12/05 06:40:21;;;;;;;20.38;6.25;;;4.70;96.70;;;;;;5163864;27;35755;-56
2021/12/05 06:42:55;;;;;;;17.25;5.97;;;4.70;96.80;;;;;;5163515;27;35740;-56
2021/12/05 06:48:09;;;;;;;21.05;5.63;;;4.60;96.90;;;;;;5163667;27;38807;-56
2021/12/05 06:50:37;;;;;;;19.23;6.60;;;4.60;96.80;;;;;;5161401;27;38017;-56
2021/12/05 06:53:06;;;;;;;13.93;5.80;;;4.70;96.70;;;;;;5163231;27;36463;-57
2021/12/05 06:55:34;;;;;;;18.50;6.82;;;4.60;96.70;;;;;;5162464;27;36584;-57
2021/12/05 06:58:01;;;;;;;19.80;5.65;;;4.60;96.70;;;;;;5159531;27;37036;-57
2021/12/05 07:00:31;;;;;;;18.10;5.60;;;4.60;96.80;;;;;;5161949;27;37209;-57
2021/12/05 07:02:59;;;;;;;23.00;6.03;;;4.60;96.80;;;;;;5161705;27;36859;-57
2021/12/05 07:05:45;;;;;;;19.60;6.45;;;4.60;96.80;;;;;;5163406;27;37339;-57
2021/12/05 07:08:15;;;;;;;17.75;5.35;;;4.60;96.80;;;;;;5160714;27;37289;-57
2021/12/05 07:10:49;;;;;;;15.40;4.78;;;4.60;96.90;;;;;;5161465;27;37900;-57
2021/12/05 07:16:11;;;;;;;20.00;5.60;;;4.60;96.70;;;;;;5162623;27;39431;-57
2021/12/05 07:18:50;;;;;;;15.02;4.78;;;4.60;96.80;;;;;;5162146;27;38268;-57
2021/12/05 07:21:29;;;;;;;18.42;5.18;;;4.60;96.80;;;;;;5163325;27;36868;-57
2021/12/05 07:24:05;;;;;;;23.20;6.13;;;4.60;96.70;;;;;;5160973;27;34796;-57
2021/12/05 07:26:48;;;;;;;15.45;5.22;;;4.70;96.70;;;;;;5162296;27;37979;-57
2021/12/05 07:40:27;;;;;;;16.08;5.80;;;4.80;96.70;;;;;;5163855;27;38391;-57
2021/12/05 07:42:57;;;;;;;16.50;5.35;;;4.70;96.70;;;;;;5162131;27;36974;-57
2021/12/05 07:45:31;;;;;;;17.92;6.07;;;4.70;96.60;;;;;;5161393;27;37346;-56
2021/12/05 07:48:06;;;;;;;19.75;5.97;;;4.70;96.70;;;;;;5162160;27;40508;-56
2021/12/05 07:50:41;;;;;;;15.15;5.45;;;4.70;96.70;;;;;;5162525;27;38625;-57
2021/12/05 07:53:17;;;;;;;18.08;6.10;;;4.80;96.70;;;;;;5161731;27;39025;-57
2021/12/05 07:55:47;;;;;;;19.00;5.97;;;4.80;96.60;;;;;;5162926;27;36646;-57
2021/12/05 07:58:29;;;;;;;18.25;5.47;;;4.80;96.50;;;;;;5160339;27;36702;-57
2021/12/05 08:01:18;;;;;;;15.88;5.90;;;4.90;96.60;;;;;;5161692;27;36951;-57
2021/12/05 08:14:52;;;;;;;20.27;5.65;;;5.20;96.10;;;;;;5161187;27;38159;-57
2021/12/05 08:17:20;;;;;;;19.75;6.35;;;5.10;96.00;;;;;;5159537;27;36212;-57
2021/12/05 08:19:49;;;;;;;15.32;5.90;;;5.10;95.80;;;;;;5160778;27;36435;-57
2021/12/05 08:22:17;;;;;;;20.15;5.97;;;5.20;96.00;;;;;;5160278;27;36197;-57
2021/12/05 08:24:47;;;;;;;21.05;6.78;;;5.20;95.90;;;;;;5157723;27;39260;-57
2021/12/05 08:27:15;;;;;;;18.10;6.68;;;5.20;95.90;;;;;;5158556;27;35732;-57
2021/12/05 08:29:47;;;;;;;13.93;6.47;;;5.20;95.90;;;;;;5156585;27;37765;-57
2021/12/05 08:32:29;;;;;;;16.98;6.75;;;5.10;96.00;;;;;;5159109;27;37571;-57
2021/12/05 08:35:18;;;;;;;16.85;6.13;;;5.10;96.10;;;;;;5162524;27;35808;-57
2021/12/05 09:19:32;;;;;;;13.50;6.90;;;5.60;95.80;;;;;;5153087;27;39374;-57
2021/12/05 09:23:34;;;;;;;19.48;9.43;;;5.90;95.50;;;;;;5152045;27;37023;-56
2021/12/05 09:29:02;;;;;;;15.90;7.40;;;5.90;95.40;;;;;;5143825;27;38617;-56
2021/12/05 09:51:16;;;;;;;14.27;6.88;;;6.00;94.60;;;;;;5160590;27;37480;-57
2021/12/05 10:10:27;;;;;;;14.02;7.40;;;6.00;94.40;;;;;;5159279;27;37208;-59
2021/12/05 10:13:15;;;;;;;19.30;7.35;;;6.00;94.40;;;;;;5157165;27;37027;-58
2021/12/05 10:36:07;;;;;;;18.58;8.27;;;5.90;94.70;;;;;;5136934;27;44266;-59
2021/12/05 10:38:42;;;;;;;14.10;7.13;;;5.90;94.70;;;;;;5138778;27;37065;-59
2021/12/05 10:41:26;;;;;;;17.60;7.60;;;5.90;94.70;;;;;;5141056;27;35385;-59
2021/12/05 10:43:56;;;;;;;18.20;8.18;;;6.00;94.80;;;;;;5141826;27;38240;-59
2021/12/05 10:46:25;;;;;;;13.90;7.45;;;6.00;94.80;;;;;;5142387;27;37381;-58
2021/12/05 10:48:58;;;;;;;16.70;7.88;;;5.90;94.70;;;;;;5142047;27;37327;-59
2021/12/05 10:51:27;;;;;;;19.30;8.05;;;5.90;94.70;;;;;;5143296;27;36827;-59
2021/12/05 10:53:57;;;;;;;16.58;7.70;;;5.90;94.80;;;;;;5141658;27;39090;-58
2021/12/05 10:56:26;;;;;;;13.70;7.57;;;5.90;94.90;;;;;;5142174;27;37629;-58
2021/12/05 10:58:56;;;;;;;15.57;7.43;;;5.90;94.80;;;;;;5140622;27;37313;-59
2021/12/05 11:01:33;;;;;;;17.13;7.68;;;5.90;94.80;;;;;;5140358;27;38509;-59
2021/12/05 11:04:05;;;;;;;18.13;7.45;;;5.90;94.70;;;;;;5141975;27;38287;-59
2021/12/05 11:06:42;;;;;;;15.23;7.65;;;5.90;94.70;;;;;;5141221;27;37274;-59
2021/12/05 11:09:13;;;;;;;22.05;8.85;;;5.90;94.70;;;;;;5140059;27;38073;-56
2021/12/05 11:11:43;;;;;;;19.15;8.30;;;5.90;94.70;;;;;;5141943;27;35364;-56
2021/12/05 11:14:16;;;;;;;13.57;7.95;;;5.90;94.70;;;;;;5140366;27;37581;-56
2021/12/05 11:16:56;;;;;;;18.90;7.53;;;5.90;94.80;;;;;;5141301;27;36000;-56
2021/12/05 11:19:32;;;;;;;24.05;8.95;;;5.90;94.80;;;;;;5140505;27;37511;-56
2021/12/05 11:22:04;;;;;;;19.23;8.48;;;5.90;94.90;;;;;;5138227;27;36293;-56
2021/12/05 11:24:34;;;;;;;18.02;8.05;;;5.90;94.90;;;;;;5139821;27;37579;-56
2021/12/05 11:27:18;;;;;;;21.95;9.35;;;5.90;94.90;;;;;;5141558;27;37579;-56
2021/12/05 11:30:00;;;;;;;17.42;7.72;;;5.90;94.90;;;;;;5140594;27;38007;-56
2021/12/05 11:32:37;;;;;;;16.92;8.18;;;6.00;94.90;;;;;;5141580;27;36426;-56
2021/12/05 11:35:27;;;;;;;13.02;7.50;;;6.00;94.90;;;;;;5142315;27;37590;-56
2021/12/05 11:38:16;;;;;;;15.93;8.02;;;6.00;94.80;;;;;;5141243;27;36782;-57
2021/12/05 11:40:52;;;;;;;22.05;8.95;;;6.10;94.80;;;;;;5140504;27;36980;-57
2021/12/05 11:43:23;;;;;;;15.60;7.80;;;6.10;94.80;;;;;;5141136;27;35364;-57
2021/12/05 11:45:55;;;;;;;17.17;7.65;;;6.10;94.70;;;;;;5137723;27;37746;-57
2021/12/05 11:48:25;;;;;;;15.43;7.10;;;6.20;94.70;;;;;;5139554;27;37457;-56
2021/12/05 11:50:54;;;;;;;18.50;7.50;;;6.20;94.70;;;;;;5140664;27;37496;-56
2021/12/05 11:53:36;;;;;;;14.75;7.65;;;6.20;94.70;;;;;;5141951;27;36999;-56
2021/12/05 11:56:04;;;;;;;14.52;7.07;;;6.20;94.80;;;;;;5139438;27;36272;-57
2021/12/05 11:58:32;;;;;;;17.90;7.50;;;6.30;94.70;;;;;;5139374;27;36056;-56
2021/12/05 12:01:05;;;;;;;13.75;7.25;;;6.30;94.70;;;;;;5141091;27;37046;-57
2021/12/05 12:03:34;;;;;;;12.57;7.00;;;6.30;94.70;;;;;;5139482;27;36432;-57
2021/12/05 12:06:04;;;;;;;16.05;7.97;;;6.30;94.70;;;;;;5141347;27;38835;-56
2021/12/05 12:08:32;;;;;;;17.00;7.43;;;6.30;94.70;;;;;;5140896;27;37172;-57
2021/12/05 12:11:02;;;;;;;16.88;7.28;;;6.40;94.70;;;;;;5140417;27;37863;-57
2021/12/05 12:13:34;;;;;;;17.98;6.78;;;6.40;94.70;;;;;;5138968;27;36288;-57
2021/12/05 12:16:06;;;;;;;14.55;7.25;;;6.40;94.70;;;;;;5137333;27;38278;-59
2021/12/05 12:18:36;;;;;;;16.55;7.15;;;6.40;94.70;;;;;;5139607;27;37438;-59
2021/12/05 12:21:10;;;;;;;18.55;7.00;;;6.40;94.80;;;;;;5141981;27;35940;-59
2021/12/05 12:23:38;;;;;;;14.20;6.93;;;6.50;94.70;;;;;;5141570;27;38084;-59
2021/12/05 12:26:08;;;;;;;15.55;7.10;;;6.50;94.70;;;;;;5141152;27;37465;-59
2021/12/05 12:28:36;;;;;;;16.20;6.57;;;6.50;94.60;;;;;;5138107;27;38325;-59
2021/12/05 12:31:07;;;;;;;18.33;6.72;;;6.50;94.60;;;;;;5139877;27;35862;-59
2021/12/05 12:33:36;;;;;;;11.02;6.10;;;6.60;94.50;;;;;;5140103;27;35775;-59
2021/12/05 12:36:06;;;;;;;13.27;7.00;;;6.50;94.50;;;;;;5140814;27;37339;-58
2021/12/05 12:38:39;;;;;;;18.17;7.78;;;6.50;94.70;;;;;;5139928;27;38352;-59
2021/12/05 12:41:14;;;;;;;16.00;7.22;;;6.60;94.40;;;;;;5140514;27;35739;-59
2021/12/05 12:43:54;;;;;;;15.45;7.47;;;6.50;94.50;;;;;;5138769;27;36311;-59
2021/12/05 12:46:29;;;;;;;13.75;6.57;;;6.60;94.60;;;;;;5141145;27;38929;-58
2021/12/05 12:49:00;;;;;;;15.43;6.78;;;6.60;94.40;;;;;;5139094;27;36185;-59
2021/12/05 12:51:33;;;;;;;14.32;8.10;;;6.60;94.50;;;;;;5140629;27;35740;-59
2021/12/05 12:54:02;;;;;;;;;;;6.60;94.50;;;;;;5140018;27;37299;-59
2021/12/05 12:56:30;;;;;;;16.30;6.93;;;6.60;94.40;;;;;;5139997;27;38320;-57
2021/12/05 12:59:00;;;;;;;12.23;6.40;;;6.70;94.40;;;;;;5141301;27;37551;-56
2021/12/05 13:01:51;;;;;;;17.50;6.85;;;6.60;94.40;;;;;;5141163;27;35793;-57
2021/12/05 13:04:39;;;;;;;12.65;6.90;;;6.70;94.40;;;;;;5142164;27;37589;-57
2021/12/05 13:09:57;;;;;;;11.95;6.00;;;6.70;94.30;;;;;;5140190;27;36417;-56
2021/12/05 13:10:17;;;;;;;15.63;7.07;;;6.70;94.20;;;;;;5140168;27;37845;-57
2021/12/05 13:12:53;;;;;;;18.52;6.78;;;6.70;94.20;;;;;;5141685;27;36793;-56
2021/12/05 13:15:28;;;;;;;18.50;7.25;;;6.70;94.20;;;;;;5139393;27;35463;-56
2021/12/05 13:17:58;;;;;;;13.65;6.88;;;6.70;94.20;;;;;;5141707;27;37676;-56
2021/12/05 13:20:46;;;;;;;13.57;6.55;;;6.70;94.10;;;;;;5140739;27;37454;-56
2021/12/05 13:23:17;;;;;;;15.30;6.90;;;6.70;94.10;;;;;;5141552;27;37055;-56
2021/12/05 13:26:08;;;;;;;13.30;6.47;;;6.70;94.10;;;;;;5141075;27;35347;-57
2021/12/05 13:28:38;;;;;;;11.80;6.45;;;6.70;94.00;;;;;;5140905;27;37571;-56
2021/12/05 13:31:38;;;;;;;14.57;6.63;;;6.70;94.10;;;;;;5139525;27;36831;-57
2021/12/05 13:34:21;;;;;;;13.77;6.43;;;6.80;94.00;;;;;;5127701;27;36998;-57
2021/12/05 13:36:51;;;;;;;15.48;6.35;;;6.80;93.90;;;;;;5140959;27;36733;-59
2021/12/05 13:39:38;;;;;;;10.93;6.47;;;6.80;94.00;;;;;;5141552;27;37740;-57
2021/12/05 13:42:10;;;;;;;12.15;6.03;;;6.80;94.00;;;;;;5140779;27;37223;-56
2021/12/05 13:45:04;;;;;;;17.75;7.05;;;6.80;93.90;;;;;;5140165;27;37434;-56
2021/12/05 13:47:34;;;;;;;12.13;6.05;;;6.80;93.80;;;;;;5140342;27;37990;-58
2021/12/05 13:50:33;;;;;;;13.20;6.82;;;6.80;93.80;;;;;;5140366;27;40101;-56
2021/12/05 13:53:27;;;;;;;15.90;6.68;;;6.80;93.80;;;;;;5141167;27;37394;-57
2021/12/05 13:56:08;;;;;;;15.05;6.60;;;6.70;94.00;;;;;;5142040;27;36509;-59
2021/12/05 13:58:48;;;;;;;14.25;6.53;;;6.70;93.80;;;;;;5144498;27;35248;-59
2021/12/05 14:01:22;;;;;;;13.55;6.70;;;6.70;93.90;;;;;;5143757;27;36342;-59
2021/12/05 14:04:09;;;;;;;10.52;6.00;;;6.70;93.80;;;;;;5144939;27;37071;-57
2021/12/05 14:06:47;;;;;;;10.27;5.68;;;6.60;93.70;;;;;;5144365;27;38399;-58
2021/12/05 14:09:20;;;;;;;13.13;6.15;;;6.60;93.80;;;;;;5145265;27;36349;-57
2021/12/05 14:11:54;;;;;;;17.60;7.13;;;6.60;93.90;;;;;;5143567;27;37659;-56
2021/12/05 14:14:25;;;;;;;13.80;6.13;;;6.60;93.90;;;;;;5143756;27;36125;-57
2021/12/05 14:16:55;;;;;;;12.15;6.18;;;6.60;94.00;;;;;;5144837;27;35887;-56
2021/12/05 14:19:27;;;;;;;11.70;6.28;;;6.60;94.10;;;;;;5144831;27;36585;-57
2021/12/05 14:21:57;;;;;;;13.02;5.50;;;6.60;94.10;;;;;;5143470;27;38138;-57
2021/12/05 14:24:27;;;;;;;13.27;6.15;;;6.50;94.00;;;;;;5144704;27;38295;-57
2021/12/05 14:26:59;;;;;;;9.35;5.32;;;6.50;94.00;;;;;;5143211;27;38246;-56
2021/12/05 14:29:29;;;;;;;10.95;5.30;;;6.50;93.90;;;;;;5144032;27;36859;-57
2021/12/05 14:32:00;;;;;;;8.50;5.43;;;6.50;93.90;;;;;;5144232;27;37582;-57
2021/12/05 14:34:28;;;;;;;14.63;6.80;;;6.50;93.90;;;;;;5143837;27;37354;-56
2021/12/05 14:36:58;;;;;;;13.45;5.45;;;6.50;94.00;;;;;;5143632;27;35893;-58
2021/12/05 14:39:29;;;;;;;9.57;5.63;;;6.50;94.10;;;;;;5144439;27;37691;-59
2021/12/05 14:42:01;;;;;;;16.25;6.05;;;6.50;94.10;;;;;;5143067;27;38459;-59
2021/12/05 14:44:30;;;;;;;13.57;5.97;;;6.50;94.20;;;;;;5143149;27;37858;-59
2021/12/05 14:47:01;;;;;;;14.98;6.40;;;6.50;94.10;;;;;;5141670;27;37090;-59
2021/12/05 14:49:31;;;;;;;12.77;6.40;;;6.50;94.10;;;;;;5143717;27;36929;-59
2021/12/05 14:51:59;;;;;;;13.88;6.32;;;6.40;94.20;;;;;;5142343;27;36383;-59
2021/12/05 14:54:32;;;;;;;12.07;5.65;;;6.40;94.20;;;;;;5142182;27;39859;-59
2021/12/05 14:57:06;;;;;;;15.55;6.72;;;6.40;94.30;;;;;;5142560;27;37024;-59
2021/12/05 14:59:33;;;;;;;9.82;5.20;;;6.40;94.40;;;;;;5142602;27;39549;-59
2021/12/05 15:02:01;;;;;;;12.02;6.05;;;6.30;94.50;;;;;;5142304;27;37515;-59
2021/12/05 15:04:33;;;;;;;12.35;6.22;;;6.30;94.60;;;;;;5143496;27;37339;-57
2021/12/05 15:07:00;;;;;;;16.52;7.75;;;6.30;94.60;;;;;;5140863;27;37230;-56
2021/12/05 15:09:33;;;;;;;16.08;9.23;;;6.20;94.80;;;;;;5143175;27;35378;-56
2021/12/05 15:12:09;;;;;;;15.63;7.70;;;6.20;95.00;;;;;;5142139;27;37882;-56
2021/12/05 15:14:40;;;;;;;16.80;8.50;;;6.10;95.00;;;;;;5141746;27;37347;-57
2021/12/05 15:17:12;;;;;;;15.85;8.25;;;6.10;95.10;;;;;;5142440;27;37111;-56
2021/12/05 15:19:42;;;;;;;15.55;9.20;;;5.80;95.10;;;;;;5143239;27;37379;-57
2021/12/05 15:22:12;;;;;;;17.00;8.98;;;6.10;95.10;;;;;;5142018;27;37690;-56
2021/12/05 15:24:40;;;;;;;17.23;8.07;;;6.10;95.30;;;;;;5141762;27;37456;-56
2021/12/05 15:27:15;;;;;;;14.90;8.80;;;6.00;95.30;;;;;;5140528;27;38462;-56
2021/12/05 15:29:47;;;;;;;15.05;8.55;;;6.00;95.30;;;;;;5143080;27;36339;-56
2021/12/05 15:32:19;;;;;;;17.83;8.88;;;6.00;95.30;;;;;;5141995;27;38286;-57
2021/12/05 15:34:50;;;;;;;23.05;9.32;;;6.00;95.30;;;;;;5141592;27;37378;-57
2021/12/05 15:37:18;;;;;;;15.38;9.02;;;6.00;95.40;;;;;;5141767;27;37526;-56
2021/12/05 15:39:47;;;;;;;16.80;9.13;;;6.00;95.30;;;;;;5141855;27;39374;-56
2021/12/05 15:42:23;;;;;;;16.50;8.75;;;6.00;95.60;;;;;;5139248;27;38979;-56
2021/12/05 15:44:53;;;;;;;18.70;9.30;;;6.00;95.40;;;;;;5140374;27;37533;-57
2021/12/05 15:47:22;;;;;;;15.82;9.30;;;5.90;95.40;;;;;;5139755;27;36759;-56
2021/12/05 15:49:57;;;;;;;21.60;10.85;;;5.90;95.40;;;;;;5141910;27;36600;-59
2021/12/05 15:52:30;;;;;;;17.08;9.57;;;5.90;95.40;;;;;;5140147;27;37495;-59
2021/12/05 15:54:57;;;;;;;22.15;9.75;;;5.90;95.40;;;;;;5140982;27;39649;-59
2021/12/05 15:57:32;;;;;;;18.08;10.25;;;5.90;95.40;;;;;;5139741;27;37868;-59
2021/12/05 16:00:24;;;;;;;19.10;10.63;;;5.90;95.40;;;;;;5141803;27;36554;-59
2021/12/05 16:03:03;;;;;;;18.92;10.52;;;5.80;95.50;;;;;;5133780;27;39166;-59
2021/12/05 16:05:31;;;;;;;23.13;10.65;;;5.80;95.50;;;;;;5141234;27;37117;-58
2021/12/05 16:08:05;;;;;;;17.35;10.10;;;5.80;95.50;;;;;;5142018;27;35930;-56
2021/12/05 16:10:34;;;;;;;26.48;9.93;;;5.80;95.50;;;;;;5140105;27;36894;-57
2021/12/05 16:13:11;;;;;;;22.90;10.48;;;5.80;95.60;;;;;;5140506;27;36980;-56
2021/12/05 16:15:39;;;;;;;19.48;10.65;;;5.80;95.60;;;;;;5140536;27;39054;-59
2021/12/05 16:18:07;;;;;;;23.33;11.00;;;5.80;95.60;;;;;;5139970;27;36933;-59
2021/12/05 16:20:41;;;;;;;21.35;11.13;;;5.70;95.70;;;;;;5141140;27;36662;-58
2021/12/05 16:23:27;;;;;;;17.77;10.60;;;5.80;95.70;;;;;;5141888;27;36305;-59
2021/12/05 16:26:13;;;;;;;22.25;11.88;;;5.70;95.80;;;;;;5140452;27;37947;-59
2021/12/05 16:28:44;;;;;;;19.40;10.45;;;5.70;95.90;;;;;;5141935;27;39554;-58
2021/12/05 16:31:16;;;;;;;20.02;11.75;;;5.70;96.20;;;;;;5141714;27;37474;-59
2021/12/05 16:33:47;;;;;;;21.05;12.02;;;5.70;96.00;;;;;;5141832;27;39765;-58
2021/12/05 16:36:15;;;;;;;24.13;11.88;;;5.70;96.10;;;;;;5141511;27;37968;-59
2021/12/05 16:38:44;;;;;;;20.35;12.40;;;5.60;96.10;;;;;;5141691;27;37261;-59
2021/12/05 16:41:16;;;;;;;19.92;12.52;;;5.60;96.30;;;;;;5139317;27;39877;-58
2021/12/05 16:43:53;;;;;;;21.23;12.35;;;5.60;96.30;;;;;;5140899;27;37189;-58
2021/12/05 16:46:23;;;;;;;20.40;12.27;;;5.60;96.30;;;;;;5140339;27;37433;-58
2021/12/05 16:48:52;;;;;;;22.85;12.25;;;5.60;96.30;;;;;;5142031;27;35893;-59
2021/12/05 16:51:23;;;;;;;20.08;11.77;;;5.50;96.30;;;;;;5140913;27;35535;-58
2021/12/05 16:53:58;;;;;;;22.77;12.38;;;5.50;96.30;;;;;;5141517;27;38356;-59
2021/12/05 16:56:51;;;;;;;21.58;12.85;;;5.50;96.30;;;;;;5140131;27;37887;-57
2021/12/05 16:59:26;;;;;;;20.08;12.27;;;5.50;96.30;;;;;;5140177;27;39077;-56
2021/12/05 17:02:19;;;;;;;19.83;13.55;;;5.40;96.40;;;;;;5140921;27;36839;-56
2021/12/05 17:04:59;;;;;;;25.37;12.77;;;5.40;96.40;;;;;;5139648;27;37689;-57